createdAt,value
2023-05-11T00:00:10.115Z,100.00
2023-05-11T00:02:37.686Z,100.00
2023-05-11T00:05:06.239Z,100.00
2023-05-11T00:07:33.656Z,100.00
2023-05-11T00:10:01.199Z,100.00
2023-05-11T00:12:28.683Z,100.00
2023-05-11T05:01:28.137Z,100.00
2023-05-11T05:09:12.707Z,100.00
2023-05-11T05:17:48.030Z,100.00
2023-05-11T05:20:15.487Z,100.00
2023-05-11T05:28:04.385Z,100.00
2023-05-11T05:30:31.942Z,100.00
2023-05-11T05:32:59.434Z,100.00
2023-05-11T05:35:26.892Z,100.00
2023-05-11T05:37:54.317Z,100.00
2023-05-11T05:40:21.854Z,100.00
2023-05-11T05:42:49.390Z,100.00
2023-05-11T05:45:16.796Z,100.00
2023-05-11T05:47:44.269Z,100.00
2023-05-11T05:50:11.940Z,100.00
2023-05-11T05:52:39.332Z,100.00
2023-05-11T05:55:07.353Z,100.00
2023-05-11T05:57:34.728Z,100.00
2023-05-11T06:00:02.173Z,100.00
2023-05-11T06:02:29.742Z,100.00
2023-05-11T06:04:58.632Z,100.00
2023-05-11T06:07:26.172Z,100.00
2023-05-11T06:09:54.137Z,100.00
2023-05-11T06:12:21.639Z,100.00
2023-05-11T06:14:49.082Z,100.00
2023-05-11T06:17:16.582Z,100.00
2023-05-11T06:19:43.974Z,100.00
2023-05-11T06:22:11.526Z,100.00
2023-05-11T06:24:38.979Z,100.00
2023-05-11T06:27:06.426Z,100.00
2023-05-11T06:29:33.858Z,100.00
2023-05-11T06:32:01.371Z,100.00
2023-05-11T06:34:29.001Z,100.00
2023-05-11T06:36:59.856Z,100.00
2023-05-11T06:39:27.412Z,100.00
2023-05-11T06:41:56.668Z,100.00
2023-05-11T06:44:25.113Z,100.00
2023-05-11T06:46:52.539Z,100.00
2023-05-11T06:49:19.981Z,100.00
2023-05-11T06:51:48.059Z,100.00
2023-05-11T06:54:15.516Z,100.00
2023-05-11T06:56:43.192Z,100.00
2023-05-11T06:59:11.339Z,100.00
2023-05-11T07:01:38.842Z,100.00
2023-05-11T07:04:07.072Z,100.00
2023-05-11T07:06:36.199Z,100.00
2023-05-11T07:09:03.920Z,100.00
2023-05-11T07:11:32.449Z,100.00
2023-05-11T07:13:59.976Z,100.00
2023-05-11T07:16:27.420Z,100.00
2023-05-11T07:18:55.004Z,100.00
2023-05-11T07:21:22.645Z,100.00
2023-05-11T07:23:50.162Z,100.00
2023-05-11T07:26:17.620Z,100.00
2023-05-11T07:28:45.046Z,100.00
2023-05-11T07:31:12.776Z,100.00
2023-05-11T07:33:40.895Z,100.00
2023-05-11T07:36:08.455Z,100.00
2023-05-11T07:38:36.601Z,100.00
2023-05-11T07:41:06.659Z,100.00
2023-05-11T07:43:34.471Z,100.00
2023-05-11T07:46:01.998Z,100.00
2023-05-11T07:48:29.518Z,100.00
2023-05-11T07:50:57.005Z,100.00
2023-05-11T07:53:24.416Z,100.00
2023-05-11T07:55:51.844Z,100.00
2023-05-11T07:58:19.414Z,100.00
2023-05-11T08:00:46.823Z,100.00
2023-05-11T08:03:15.372Z,100.00
2023-05-11T08:05:42.995Z,100.00
2023-05-11T08:08:11.373Z,100.00
2023-05-11T08:10:38.871Z,100.00
2023-05-11T08:13:06.342Z,100.00
2023-05-11T08:15:34.170Z,100.00
2023-05-11T08:18:01.648Z,100.00
2023-05-11T08:20:29.589Z,100.00
2023-05-11T08:22:57.952Z,100.00
2023-05-11T08:25:25.415Z,100.00
2023-05-11T08:27:55.768Z,100.00
2023-05-11T08:30:23.235Z,100.00
2023-05-11T08:32:58.699Z,100.00
2023-05-11T08:35:27.382Z,100.00
2023-05-11T08:37:54.925Z,100.00
2023-05-11T08:40:24.669Z,100.00
2023-05-11T08:42:57.214Z,100.00
2023-05-11T08:45:27.677Z,100.00
2023-05-11T08:47:55.834Z,100.00
2023-05-11T08:50:23.816Z,100.00
2023-05-11T08:52:51.328Z,100.00
2023-05-11T08:55:19.952Z,100.00
2023-05-11T08:57:49.675Z,100.00
2023-05-11T09:00:17.808Z,100.00
2023-05-11T09:02:45.612Z,100.00
2023-05-11T09:05:14.322Z,100.00
2023-05-11T09:07:42.580Z,100.00
2023-05-11T09:10:13.562Z,100.00
2023-05-11T09:12:41.695Z,100.00
2023-05-11T09:15:10.220Z,100.00
2023-05-11T09:17:37.732Z,100.00
2023-05-11T09:20:09.460Z,100.00
2023-05-11T09:22:48.386Z,100.00
2023-05-11T09:25:19.422Z,100.00
2023-05-11T09:27:48.375Z,100.00
2023-05-11T09:30:24.090Z,100.00
2023-05-11T09:32:59.675Z,100.00
2023-05-11T09:35:35.462Z,100.00
2023-05-11T09:38:12.965Z,100.00
2023-05-11T09:40:52.497Z,100.00
2023-05-11T09:43:30.944Z,100.00
2023-05-11T09:46:07.114Z,100.00
2023-05-11T09:48:35.446Z,100.00
2023-05-11T09:51:08.727Z,100.00
2023-05-11T09:53:44.042Z,100.00
2023-05-11T09:56:13.256Z,100.00
2023-05-11T09:58:57.452Z,100.00
2023-05-11T10:01:34.735Z,100.00
2023-05-11T10:04:21.134Z,100.00
2023-05-11T10:06:53.985Z,100.00
2023-05-11T10:09:26.065Z,100.00
2023-05-11T10:11:55.263Z,100.00
2023-05-11T10:14:24.859Z,100.00
2023-05-11T10:16:53.886Z,100.00
2023-05-11T10:19:21.335Z,100.00
2023-05-11T10:21:49.698Z,100.00
2023-05-11T10:24:20.289Z,100.00
2023-05-11T10:26:48.726Z,100.00
2023-05-11T10:29:19.346Z,100.00
2023-05-11T10:31:48.622Z,100.00
2023-05-11T10:34:16.609Z,100.00
2023-05-11T10:36:47.792Z,100.00
2023-05-11T10:39:15.225Z,100.00
2023-05-11T10:42:41.534Z,100.00
2023-05-11T10:45:24.696Z,100.00
2023-05-11T10:48:59.259Z,100.00
2023-05-11T10:52:21.892Z,100.00
2023-05-11T10:55:50.992Z,100.00
2023-05-11T10:59:25.944Z,100.00
2023-05-11T11:01:58.034Z,100.00
2023-05-11T11:04:27.681Z,100.00
2023-05-11T11:07:06.696Z,100.00
2023-05-11T11:10:01.014Z,100.00
2023-05-11T11:12:30.058Z,100.00
2023-05-11T11:15:07.238Z,100.00
2023-05-11T11:17:36.579Z,100.00
2023-05-11T11:20:08.720Z,100.00
2023-05-11T11:22:39.219Z,100.00
2023-05-11T11:25:16.195Z,100.00
2023-05-11T11:27:49.877Z,100.00
2023-05-11T11:30:28.873Z,100.00
2023-05-11T11:33:08.258Z,100.00
2023-05-11T11:35:41.839Z,100.00
2023-05-11T11:38:13.380Z,100.00
2023-05-11T11:40:51.423Z,100.00
2023-05-11T11:43:29.133Z,100.00
2023-05-11T11:46:00.367Z,100.00
2023-05-11T11:48:42.623Z,100.00
2023-05-11T11:51:13.967Z,100.00
2023-05-11T11:53:41.367Z,100.00
2023-05-11T11:56:15.978Z,100.00
2023-05-11T11:58:46.685Z,100.00
2023-05-11T12:01:22.187Z,100.00
2023-05-11T12:04:04.902Z,100.00
2023-05-11T12:06:44.560Z,100.00
2023-05-11T12:09:16.852Z,100.00
2023-05-11T12:11:47.959Z,100.00
2023-05-11T12:14:16.672Z,100.00
2023-05-11T12:16:59.524Z,100.00
2023-05-11T12:19:27.036Z,100.00
2023-05-11T12:21:54.580Z,100.00
2023-05-11T12:24:22.264Z,100.00
2023-05-11T12:26:49.678Z,100.00
2023-05-11T12:29:18.591Z,100.00
2023-05-11T12:31:47.284Z,100.00
2023-05-11T12:34:24.188Z,100.00
2023-05-11T12:36:54.645Z,100.00
2023-05-11T12:39:27.249Z,100.00
2023-05-11T12:41:57.313Z,100.00
2023-05-11T12:44:28.027Z,100.00
2023-05-11T12:46:55.823Z,100.00
2023-05-11T12:49:26.553Z,100.00
2023-05-11T12:52:00.559Z,100.00
2023-05-11T12:54:33.292Z,100.00
2023-05-11T12:57:07.205Z,91.76
2023-05-11T12:59:40.931Z,90.46
2023-05-11T13:02:18.735Z,89.87
2023-05-11T13:04:48.402Z,89.98
2023-05-11T13:07:28.797Z,84.66
2023-05-11T13:10:01.408Z,86.26
2023-05-11T13:12:34.282Z,88.90
2023-05-11T13:15:14.998Z,85.69
2023-05-11T13:17:43.875Z,82.40
2023-05-11T13:20:28.715Z,80.89
2023-05-11T13:23:13.934Z,81.72
2023-05-11T13:25:50.306Z,85.61
2023-05-11T13:28:22.106Z,87.26
2023-05-11T13:30:51.575Z,92.01
2023-05-11T13:33:19.461Z,100.00
2023-05-11T13:35:46.969Z,100.00
2023-05-11T13:38:14.618Z,100.00
2023-05-11T13:40:42.041Z,100.00
2023-05-11T13:43:09.479Z,100.00
2023-05-11T13:45:36.938Z,100.00
2023-05-11T13:48:04.732Z,100.00
2023-05-11T13:50:32.358Z,100.00
2023-05-11T13:52:59.827Z,100.00
2023-05-11T13:55:28.525Z,100.00
2023-05-11T13:57:56.984Z,100.00
2023-05-11T14:00:24.504Z,100.00
2023-05-11T14:02:52.776Z,100.00
2023-05-11T14:05:20.547Z,100.00
2023-05-11T14:07:48.976Z,100.00
2023-05-11T14:10:17.962Z,100.00
2023-05-11T14:12:46.536Z,100.00
2023-05-11T14:15:14.991Z,100.00
2023-05-11T14:17:43.366Z,100.00
2023-05-11T14:20:13.239Z,100.00
2023-05-11T14:22:41.829Z,100.00
2023-05-11T14:25:09.850Z,100.00
2023-05-11T14:27:37.435Z,100.00
2023-05-11T14:30:07.252Z,100.00
2023-05-11T14:32:34.724Z,100.00
2023-05-11T14:35:02.093Z,100.00
2023-05-11T14:37:30.120Z,100.00
2023-05-11T14:39:57.512Z,100.00
2023-05-11T14:42:24.904Z,100.00
2023-05-11T14:44:52.340Z,100.00
2023-05-11T14:47:19.787Z,100.00
2023-05-11T14:49:47.180Z,100.00
2023-05-11T14:52:14.557Z,100.00
2023-05-11T14:54:42.660Z,100.00
2023-05-11T14:57:10.156Z,100.00
2023-05-11T14:59:47.728Z,100.00
2023-05-11T15:02:26.055Z,100.00
2023-05-11T15:04:53.768Z,100.00
2023-05-11T15:07:21.420Z,100.00
2023-05-11T15:09:49.816Z,100.00
2023-05-11T15:12:17.259Z,100.00
2023-05-11T15:14:44.680Z,100.00
2023-05-11T15:17:12.350Z,100.00
2023-05-11T15:19:39.748Z,100.00
2023-05-11T15:22:07.142Z,100.00
2023-05-11T15:24:34.550Z,100.00
2023-05-11T15:27:02.226Z,99.21
2023-05-11T15:29:29.660Z,95.77
2023-05-11T15:31:57.109Z,90.65
2023-05-11T15:34:24.527Z,88.68
2023-05-11T15:36:51.908Z,91.50
2023-05-11T15:39:19.594Z,92.80
2023-05-11T15:41:47.019Z,90.70
2023-05-11T15:44:14.419Z,91.50
2023-05-11T15:46:41.864Z,88.61
2023-05-11T15:49:09.387Z,88.58
2023-05-11T15:51:37.155Z,89.36
2023-05-11T15:54:04.671Z,88.57
2023-05-11T15:56:32.291Z,88.24
2023-05-11T15:58:59.741Z,88.81
2023-05-11T16:01:27.160Z,88.17
2023-05-11T16:03:54.693Z,84.67
2023-05-11T16:06:22.116Z,82.23
2023-05-11T16:08:49.527Z,85.72
2023-05-11T16:11:18.907Z,89.08
2023-05-11T16:13:46.717Z,92.59
2023-05-11T16:16:14.585Z,97.92
2023-05-11T16:18:42.152Z,100.00
2023-05-11T16:21:09.643Z,100.00
2023-05-11T16:23:37.017Z,100.00
2023-05-11T16:26:04.520Z,97.91
2023-05-11T16:28:33.308Z,94.02
2023-05-11T16:31:01.085Z,91.52
2023-05-11T16:33:28.493Z,90.84
2023-05-11T16:35:55.983Z,88.14
2023-05-11T16:38:23.856Z,95.06
2023-05-11T16:40:51.285Z,83.15
2023-05-11T16:43:18.687Z,79.99
2023-05-11T16:45:46.122Z,84.82
2023-05-11T16:48:13.511Z,89.52
2023-05-11T16:50:41.225Z,95.09
2023-05-11T16:53:09.230Z,97.20
2023-05-11T16:55:36.686Z,100.00
2023-05-11T16:58:04.103Z,100.00
2023-05-11T17:00:34.034Z,98.43
2023-05-11T17:03:01.944Z,98.75
2023-05-11T17:05:29.422Z,100.00
2023-05-11T17:07:56.827Z,100.00
2023-05-11T17:10:24.592Z,100.00
2023-05-11T17:12:52.141Z,100.00
2023-05-11T17:15:19.583Z,100.00
2023-05-11T17:17:47.018Z,100.00
2023-05-11T17:20:14.693Z,100.00
2023-05-11T17:22:42.137Z,100.00
2023-05-11T17:25:10.137Z,100.00
2023-05-11T17:27:37.669Z,100.00
2023-05-11T17:30:07.028Z,100.00
2023-05-11T17:32:34.722Z,100.00
2023-05-11T17:35:02.522Z,100.00
2023-05-11T17:37:32.254Z,100.00
2023-05-11T17:40:01.758Z,100.00
2023-05-11T17:42:30.707Z,100.00
2023-05-11T17:44:58.227Z,100.00
2023-05-11T17:47:26.286Z,100.00
2023-05-11T17:49:54.769Z,100.00
2023-05-11T17:52:24.770Z,100.00
2023-05-11T17:54:52.476Z,100.00
2023-05-11T17:57:19.888Z,100.00
2023-05-11T17:59:47.883Z,100.00
2023-05-11T18:02:15.967Z,100.00
2023-05-11T18:04:43.521Z,100.00
2023-05-11T18:07:10.952Z,100.00
2023-05-11T18:09:38.342Z,100.00
2023-05-11T18:12:07.979Z,100.00
2023-05-11T18:14:36.279Z,100.00
2023-05-11T18:17:04.533Z,100.00
2023-05-11T18:19:32.013Z,100.00
2023-05-11T18:22:00.752Z,100.00
2023-05-11T18:24:28.171Z,100.00
2023-05-11T18:26:56.034Z,100.00
2023-05-11T18:29:23.421Z,100.00
2023-05-11T18:31:51.088Z,100.00
2023-05-11T18:34:18.576Z,100.00
2023-05-11T18:36:45.949Z,100.00
2023-05-11T18:39:14.323Z,100.00
2023-05-11T18:41:41.804Z,100.00
2023-05-11T18:44:09.458Z,100.00
2023-05-11T18:46:37.207Z,100.00
2023-05-11T18:49:04.668Z,100.00
2023-05-11T18:51:32.090Z,100.00
2023-05-11T18:53:59.475Z,100.00
2023-05-11T18:56:26.882Z,100.00
2023-05-11T18:58:55.299Z,100.00
2023-05-11T19:01:27.909Z,100.00
2023-05-11T19:04:00.791Z,100.00
2023-05-11T19:06:28.785Z,100.00
2023-05-11T19:08:56.175Z,100.00
2023-05-11T19:11:26.176Z,100.00
2023-05-11T19:13:53.642Z,100.00
2023-05-11T19:16:21.090Z,100.00
2023-05-11T19:18:49.679Z,100.00
2023-05-11T19:21:17.154Z,100.00
2023-05-11T19:23:44.838Z,100.00
2023-05-11T19:26:12.258Z,100.00
2023-05-11T19:28:39.648Z,100.00
2023-05-11T19:31:07.209Z,100.00
2023-05-11T19:33:34.625Z,100.00
2023-05-11T19:36:02.175Z,100.00
2023-05-11T19:38:29.622Z,100.00
2023-05-11T19:40:57.107Z,100.00
2023-05-11T19:43:24.507Z,100.00
2023-05-11T19:45:52.168Z,100.00
2023-05-11T19:48:19.772Z,100.00
2023-05-11T19:50:47.289Z,100.00
2023-05-11T19:53:15.098Z,100.00
2023-05-11T19:55:42.508Z,100.00
2023-05-11T19:58:10.142Z,100.00
2023-05-11T20:00:41.015Z,100.00
2023-05-11T20:03:08.780Z,100.00
2023-05-11T20:05:36.803Z,100.00
2023-05-11T20:08:06.218Z,100.00
2023-05-11T20:10:33.938Z,100.00
2023-05-11T20:13:04.029Z,100.00
2023-05-11T20:15:34.047Z,100.00
2023-05-11T20:18:05.255Z,100.00
2023-05-11T20:20:33.315Z,100.00
2023-05-11T20:23:02.443Z,100.00
2023-05-11T20:25:30.170Z,100.00
2023-05-11T20:27:57.578Z,100.00
2023-05-11T20:30:24.940Z,100.00
2023-05-11T20:35:23.157Z,100.00
2023-05-11T20:37:50.595Z,100.00
2023-05-11T20:40:18.664Z,100.00
2023-05-11T20:42:46.401Z,100.00
2023-05-11T20:45:13.936Z,100.00
2023-05-11T20:47:41.385Z,100.00
2023-05-11T20:50:10.256Z,100.00
2023-05-11T20:52:38.123Z,100.00
2023-05-11T20:55:07.391Z,100.00
2023-05-11T20:57:34.888Z,100.00
2023-05-11T21:00:04.155Z,100.00
2023-05-11T21:02:32.339Z,100.00
2023-05-11T21:05:02.351Z,100.00
2023-05-11T21:07:31.039Z,100.00
2023-05-11T21:09:58.471Z,100.00
2023-05-11T21:12:25.883Z,100.00
2023-05-11T21:14:54.946Z,100.00
2023-05-11T21:17:24.305Z,100.00
2023-05-11T21:19:51.875Z,100.00
2023-05-11T21:22:20.302Z,100.00
2023-05-11T21:24:47.849Z,100.00
2023-05-11T21:27:15.427Z,100.00
2023-05-11T21:29:42.893Z,100.00
2023-05-11T21:32:10.638Z,100.00
2023-05-11T21:34:38.503Z,100.00
2023-05-11T21:37:05.969Z,100.00
2023-05-11T21:39:33.537Z,100.00
2023-05-11T21:42:02.007Z,100.00
2023-05-11T21:44:29.578Z,100.00
2023-05-11T21:46:57.110Z,100.00
2023-05-11T21:49:24.504Z,100.00
2023-05-11T21:51:52.386Z,100.00
2023-05-11T21:54:22.889Z,100.00
2023-05-11T21:56:52.289Z,100.00
